Main page
METAR-TAF:

METAR-TAF

Airports :

Verona Villafranca Airport

Verona, Italy

latitude: 45-23N, longitude: 010-52E, elevation: 67 m

Current weather observation

The report was made 45 minutes ago, at 21:20 UTC
Wind 9 kt from the East
Temperature 18°C
Humidity 94%
Pressure 1023 hPa
Visibility 10 km or more
Scattered clouds at a height of 8000 ft

METAR: LIPX 212120Z 09009KT 9999 SCT080 18/17 Q1023

Time: 00:05 (22:05 UTC)

Forecast

The report was made 2 hours and 5 minutes ago, at 20:00 UTC
Forecast valid from 21 at 21 UTC to 22 at 06 UTC
Wind 8 kt from the East
Visibility 10 km or more
Scattered clouds at a height of 6000 ft
Temporary
from 22 at 02 UTC to 22 at 06 UTC
Visibility: 2000 m
patches of fog

TAF: LIPX 212000Z 2121/2206 09008KT 9999 SCT060 TEMPO 2202/2206 2000 BCFG

Weather observations and forecasts of more than 4000 airports (METAR and TAF reports).

The available stations are represented by yellow and red dots on the map.

Hover mouse over dot to see the name of the station.

Then click to see weather observations and forecasts.

To change the map : click on the green buttons with a black cross to zoom in, on the green button with a dash to zoom out, or on the green arrows for adjacent maps.


METAR-TAF: